Time;durP1;ratioP1;P1;durP2;ratioP2;P2;SDS_P1;SDS_P2;PMS_P1;PMS_P2;Temp;Humidity;BMP_temperature;BMP_pressure;BME280_temperature;BME280_humidity;BME280_pressure;Samples;Min_cycle;Max_cycle;Signal;HPM_P1;HPM_P2
2023/07/23 00:00:47;;;;;;;7.70;4.07;;;;;;;23.17;94.67;64401.00;5121720;28;20244;-79
2023/07/23 00:03:14;;;;;;;7.22;3.90;;;;;;;23.15;94.48;64398.91;5131605;28;20294;-80
2023/07/23 00:05:44;;;;;;;9.35;5.32;;;;;;;23.06;94.93;64390.00;5130715;28;20195;-80
2023/07/23 00:08:13;;;;;;;14.85;4.60;;;;;;;22.98;96.19;64383.72;5131198;28;20194;-79
2023/07/23 00:10:40;;;;;;;8.80;5.05;;;;;;;22.89;98.87;64372.25;5130090;28;20199;-81
2023/07/23 00:13:07;;;;;;;9.40;4.57;;;;;;;22.89;100.00;64372.25;5129739;28;20212;-80
2023/07/23 00:15:34;;;;;;;12.32;4.70;;;;;;;22.89;100.00;64370.16;5134415;28;20195;-80
2023/07/23 00:18:03;;;;;;;7.55;4.03;;;;;;;22.77;100.00;64365.41;5131768;28;20195;-80
2023/07/23 00:20:30;;;;;;;7.63;5.35;;;;;;;22.82;100.00;64365.44;5130637;28;20361;-79
2023/07/23 00:22:57;;;;;;;8.48;4.53;;;;;;;22.82;100.00;64364.91;5130770;28;20225;-80
2023/07/23 00:25:25;;;;;;;9.95;5.10;;;;;;;22.86;100.00;64372.22;5131721;28;20194;-79
2023/07/23 00:27:52;;;;;;;7.35;5.65;;;;;;;22.89;100.00;64377.44;5121780;28;20211;-78
2023/07/23 00:30:20;;;;;;;10.35;4.80;;;;;;;22.82;100.00;64367.50;5129204;28;20187;-80
2023/07/23 00:32:47;;;;;;;12.18;5.47;;;;;;;22.86;100.00;64371.69;5129950;28;20202;-80
2023/07/23 00:35:14;;;;;;;10.55;4.43;;;;;;;22.87;100.00;64373.28;5133864;28;20205;-79
2023/07/23 00:37:41;;;;;;;9.35;4.32;;;;;;;22.86;100.00;64374.81;5129402;28;20218;-81
2023/07/23 00:40:10;;;;;;;10.60;5.28;;;;;;;22.93;100.00;64376.44;5129995;28;20202;-80
2023/07/23 00:42:39;;;;;;;13.25;5.95;;;;;;;22.95;100.00;64378.53;5130246;28;20234;-80
2023/07/23 00:45:07;;;;;;;8.75;5.53;;;;;;;22.98;100.00;64386.84;5130465;28;20194;-81
2023/07/23 00:47:34;;;;;;;12.98;5.63;;;;;;;22.99;100.00;64385.28;5128407;28;20236;-81
2023/07/23 00:50:03;;;;;;;5.22;4.82;;;;;;;22.93;100.00;64384.72;5132980;28;20222;-79
2023/07/23 00:52:30;;;;;;;11.60;5.03;;;;;;;22.86;100.00;64369.09;5131647;28;20211;-80
2023/07/23 00:54:57;;;;;;;12.30;5.78;;;;;;;22.91;100.00;64374.34;5127344;28;20456;-81
2023/07/23 00:57:24;;;;;;;16.48;5.68;;;;;;;22.84;100.00;64369.59;5128116;28;20214;-79
2023/07/23 00:59:53;;;;;;;13.38;5.72;;;;;;;22.78;100.00;64361.25;5133393;28;20216;-80
2023/07/23 01:02:20;;;;;;;9.95;5.30;;;;;;;22.68;100.00;64350.81;5129973;28;20290;-80
2023/07/23 01:04:47;;;;;;;6.03;5.32;;;;;;;22.61;100.00;64346.06;5127193;28;20262;-80
2023/07/23 01:07:14;;;;;;;9.70;5.07;;;;;;;22.56;100.00;64337.72;5128456;28;20214;-81
2023/07/23 01:09:42;;;;;;;10.48;5.60;;;;;;;22.43;100.00;64329.31;5131530;28;20195;-79
2023/07/23 01:12:10;;;;;;;10.82;5.57;;;;;;;22.32;100.00;64315.22;5129588;28;20429;-80
2023/07/23 01:14:37;;;;;;;13.05;5.22;;;;;;;22.45;100.00;64328.81;5114546;28;20237;-80
2023/07/23 01:17:07;;;;;;;8.57;5.68;;;;;;;22.39;100.00;64317.34;5128212;28;20259;-79
2023/07/23 01:19:37;;;;;;;10.80;5.38;;;;;;;22.35;100.00;64315.75;5131969;28;20243;-80
2023/07/23 01:22:08;;;;;;;10.40;5.35;;;;;;;22.34;100.00;64315.25;5126421;28;20226;-82
2023/07/23 01:24:35;;;;;;;9.15;5.28;;;;;;;22.30;100.00;64313.13;5128601;28;20197;-81
2023/07/23 01:27:03;;;;;;;10.57;4.97;;;;;;;22.28;100.00;64311.03;5129711;28;20286;-81
2023/07/23 01:29:30;;;;;;;6.07;4.63;;;;;;;22.35;100.00;64321.47;5128518;28;20194;-80
2023/07/23 01:31:58;;;;;;;17.42;5.95;;;;;;;22.31;100.00;64314.69;5129564;28;20226;-80
2023/07/23 01:34:26;;;;;;;7.88;5.10;;;;;;;22.30;100.00;64313.13;5129302;28;20256;-80
2023/07/23 01:36:54;;;;;;;14.68;5.90;;;;;;;22.26;100.00;64308.94;5131230;28;20218;-79
2023/07/23 01:39:23;;;;;;;7.80;4.55;;;;;;;22.30;100.00;64310.53;5132800;28;20238;-80
2023/07/23 01:41:50;;;;;;;11.23;4.72;;;;;;;22.29;100.00;64310.00;5126208;28;20229;-80
2023/07/23 01:44:17;;;;;;;8.23;5.32;;;;;;;22.28;100.00;64313.63;5129894;28;20436;-81
2023/07/23 01:46:43;;;;;;;9.85;5.30;;;;;;;22.24;100.00;64304.78;5127539;28;20256;-81
2023/07/23 01:49:10;;;;;;;9.52;5.68;;;;;;;22.24;100.00;64309.97;5122503;28;20244;-80
2023/07/23 01:51:37;;;;;;;11.25;5.40;;;;;;;22.20;100.00;64302.66;5108109;28;20219;-80
2023/07/23 01:54:04;;;;;;;9.85;5.70;;;;;;;22.23;100.00;64300.59;5112471;28;20187;-79
2023/07/23 01:56:33;;;;;;;10.40;4.97;;;;;;;22.17;100.00;64294.34;5108044;28;20274;-81
2023/07/23 01:58:59;;;;;;;8.13;4.80;;;;;;;22.12;100.00;64291.72;5118111;28;20232;-80
2023/07/23 02:01:27;;;;;;;8.20;5.32;;;;;;;22.14;100.00;64291.72;5128771;28;20215;-79
2023/07/23 02:03:54;;;;;;;12.00;4.97;;;;;;;22.07;100.00;64286.50;5127764;28;20312;-80
2023/07/23 02:06:21;;;;;;;11.55;5.18;;;;;;;22.13;100.00;64290.16;5128334;28;20240;-81
2023/07/23 02:08:48;;;;;;;10.60;5.43;;;;;;;22.06;100.00;64290.63;5127638;28;20203;-79
2023/07/23 02:11:15;;;;;;;10.23;4.95;;;;;;;22.15;100.00;64297.97;5131844;28;20210;-80
2023/07/23 02:13:44;;;;;;;8.65;5.50;;;;;;;22.14;100.00;64294.31;5127955;28;20191;-79
2023/07/23 02:16:17;;;;;;;9.70;5.28;;;;;;;22.15;100.00;64297.97;5127055;28;20214;-80
2023/07/23 02:18:44;;;;;;;10.65;5.47;;;;;;;22.10;100.00;64287.56;5127431;28;20194;-79
2023/07/23 02:21:11;;;;;;;12.35;5.38;;;;;;;22.12;100.00;64294.84;5127783;28;20248;-80
2023/07/23 02:23:38;;;;;;;10.38;5.65;;;;;;;22.17;100.00;64294.88;5127654;28;20253;-81
2023/07/23 02:26:05;;;;;;;7.95;5.30;;;;;;;22.17;100.00;64294.88;5120887;28;20239;-80
2023/07/23 02:28:32;;;;;;;10.88;4.68;;;;;;;22.16;100.00;64295.91;5130006;28;20221;-80
2023/07/23 02:31:02;;;;;;;8.95;5.10;;;;;;;22.04;99.93;64283.88;5131268;28;20215;-78
2023/07/23 02:33:29;;;;;;;8.88;5.30;;;;;;;22.17;99.02;64302.66;5127736;28;20182;-80
2023/07/23 02:35:55;;;;;;;11.70;4.95;;;;;;;22.26;96.84;64312.06;5127311;28;20286;-79
2023/07/23 02:38:23;;;;;;;11.23;5.35;;;;;;;22.35;96.63;64313.69;5128143;28;20229;-81
2023/07/23 02:40:56;;;;;;;15.95;5.47;;;;;;;22.52;98.06;64333.53;5128458;28;20211;-82
2023/07/23 02:43:23;;;;;;;13.38;5.82;;;;;;;22.71;96.87;64358.63;5112242;28;20264;-81
2023/07/23 02:45:49;;;;;;;12.48;4.70;;;;;;;22.83;95.48;64365.97;5128838;28;20210;-80
2023/07/23 02:48:18;;;;;;;13.93;6.25;;;;;;;22.85;95.30;64368.03;5129578;28;20220;-78
2023/07/23 02:50:45;;;;;;;11.90;5.53;;;;;;;22.93;95.24;64379.03;5127478;28;20199;-82
2023/07/23 02:53:11;;;;;;;10.32;6.25;;;;;;;22.97;95.76;64383.19;5117258;28;20253;-79
2023/07/23 02:55:38;;;;;;;11.85;5.53;;;;;;;22.95;97.33;64380.59;5107924;28;20274;-80
2023/07/23 02:58:05;;;;;;;12.70;6.38;;;;;;;22.94;97.43;64377.47;5112083;28;20548;-81
2023/07/23 03:00:33;;;;;;;10.48;7.00;;;;;;;22.92;99.21;64373.28;5107278;28;20198;-81
2023/07/23 03:03:00;;;;;;;15.57;7.68;;;;;;;22.83;100.00;64366.47;5107172;28;20238;-79
2023/07/23 03:05:28;;;;;;;13.27;8.27;;;;;;;22.84;100.00;64370.13;5107552;28;20191;-82
2023/07/23 03:07:55;;;;;;;12.60;7.90;;;;;;;22.88;100.00;64371.19;5108624;28;20236;-80
2023/07/23 03:10:22;;;;;;;12.57;7.82;;;;;;;22.86;100.00;64369.63;5113143;28;20630;-81
2023/07/23 03:12:49;;;;;;;15.60;8.93;;;;;;;22.92;100.00;64377.97;5133336;28;20215;-82
2023/07/23 03:15:16;;;;;;;14.80;10.15;;;;;;;22.92;100.00;64374.84;5133998;28;20198;-82
2023/07/23 03:17:43;;;;;;;12.73;8.65;;;;;;;22.92;100.00;64375.38;5132292;28;20222;-80
2023/07/23 03:20:11;;;;;;;15.55;8.93;;;;;;;22.86;100.00;64371.69;5122447;28;20205;-80
2023/07/23 03:22:40;;;;;;;17.35;9.50;;;;;;;22.86;100.00;64366.50;5110291;28;20227;-81
2023/07/23 03:25:08;;;;;;;14.20;8.75;;;;;;;22.76;100.00;64356.06;5120144;28;20226;-79
2023/07/23 03:27:35;;;;;;;10.80;8.77;;;;;;;22.63;100.00;64345.56;5129957;28;20441;-80
2023/07/23 03:30:07;;;;;;;11.90;9.13;;;;;;;22.80;100.00;64360.22;5129972;28;20236;-80
2023/07/23 03:32:34;;;;;;;14.07;8.80;;;;;;;22.90;99.60;64368.59;5132421;28;20226;-80
2023/07/23 03:35:01;;;;;;;15.93;9.05;;;;;;;22.96;97.49;64382.16;5130797;28;20194;-81
2023/07/23 03:37:30;;;;;;;13.40;8.30;;;;;;;23.01;94.24;64384.25;5130009;28;20229;-79
2023/07/23 03:39:58;;;;;;;10.30;8.18;;;;;;;23.03;85.31;64388.94;5131209;28;20210;-80
2023/07/23 03:42:25;;;;;;;18.00;8.75;;;;;;;23.17;86.11;64404.13;5130464;28;20238;-81
2023/07/23 03:44:52;;;;;;;10.98;7.32;;;;;;;23.24;79.57;64408.84;5134093;28;20224;-82
2023/07/23 03:47:21;;;;;;;13.00;8.10;;;;;;;23.30;77.78;64417.72;5133158;28;20190;-80
2023/07/23 03:49:49;;;;;;;8.02;7.20;;;;;;;23.41;76.69;64426.66;5132013;28;20195;-81
2023/07/23 03:52:16;;;;;;;9.40;7.95;;;;;;;23.42;75.27;64424.56;5129954;28;20229;-79
2023/07/23 03:54:43;;;;;;;10.05;7.68;;;;;;;23.50;75.45;64440.75;5131190;28;20270;-79
2023/07/23 03:57:12;;;;;;;8.23;7.15;;;;;;;23.58;72.29;64446.50;5129139;28;20281;-82
2023/07/23 03:59:40;;;;;;;7.43;6.72;;;;;;;23.66;68.64;64449.69;5131983;28;20202;-80
2023/07/23 04:02:08;;;;;;;8.00;7.22;;;;;;;23.75;68.37;64466.91;5133853;28;20217;-81
2023/07/23 04:04:37;;;;;;;14.55;8.32;;;;;;;23.86;67.47;64476.34;5129133;28;20239;-80
2023/07/23 04:07:05;;;;;;;8.27;7.57;;;;;;;23.85;68.01;64475.28;5130452;28;20214;-80
2023/07/23 04:09:32;;;;;;;8.27;6.72;;;;;;;23.92;67.26;64485.22;5129792;28;20194;-81
2023/07/23 04:12:00;;;;;;;7.82;7.05;;;;;;;23.93;66.13;64483.16;5130754;28;20214;-78
2023/07/23 04:14:28;;;;;;;8.90;8.02;;;;;;;24.02;65.66;64493.09;5127859;28;20487;-80
2023/07/23 04:16:56;;;;;;;7.90;7.30;;;;;;;24.14;64.62;64504.63;5131655;28;20633;-79
2023/07/23 04:19:23;;;;;;;13.38;8.75;;;;;;;24.27;65.58;64516.16;5130584;28;20198;-84
2023/07/23 04:21:50;;;;;;;8.15;7.43;;;;;;;24.24;65.73;64513.00;5129946;28;20218;-82
2023/07/23 04:24:17;;;;;;;7.18;6.55;;;;;;;24.25;62.97;64514.06;5112098;28;20222;-82
2023/07/23 04:26:44;;;;;;;6.78;6.18;;;;;;;24.31;60.41;64517.22;5119186;28;20222;-80
2023/07/23 04:29:11;;;;;;;6.90;6.30;;;;;;;24.38;59.44;64527.13;5132295;28;20420;-80
2023/07/23 04:31:40;;;;;;;7.20;6.45;;;;;;;24.31;62.30;64522.41;5134114;28;20240;-81
2023/07/23 04:34:07;;;;;;;9.60;7.13;;;;;;;24.33;62.74;64522.44;5131066;28;20201;-81
2023/07/23 04:36:34;;;;;;;6.72;6.18;;;;;;;24.37;60.96;64526.09;5130762;28;20218;-82
2023/07/23 04:39:03;;;;;;;5.40;4.93;;;;;;;24.55;56.01;64542.34;5130683;28;20240;-81
2023/07/23 04:41:30;;;;;;;6.75;4.97;;;;;;;24.56;57.10;64551.72;5127203;28;20211;-79
2023/07/23 04:43:57;;;;;;;5.97;5.57;;;;;;;24.59;59.00;64549.66;5130291;28;20237;-80
2023/07/23 04:46:24;;;;;;;5.32;4.85;;;;;;;24.49;57.71;64538.66;5135686;28;20215;-78
2023/07/23 04:48:53;;;;;;;4.68;4.38;;;;;;;24.47;54.96;64539.19;5130624;28;20194;-79
2023/07/23 04:51:21;;;;;;;11.93;8.20;;;;;;;24.56;64.91;64545.97;5127174;28;20219;-79
2023/07/23 04:53:48;;;;;;;8.68;7.00;;;;;;;24.40;64.19;64534.97;5128772;28;20191;-78
2023/07/23 04:56:15;;;;;;;13.32;7.88;;;;;;;24.51;65.45;64546.47;5129232;28;20247;-78
2023/07/23 04:58:41;;;;;;;7.47;6.80;;;;;;;24.44;65.62;64531.34;5125613;28;20208;-79
2023/07/23 05:01:11;;;;;;;9.00;8.02;;;;;;;24.64;69.67;64554.88;5128614;28;20252;-79
2023/07/23 05:03:39;;;;;;;9.10;8.20;;;;;;;24.52;67.48;64544.91;5127601;28;20227;-77
2023/07/23 05:06:08;;;;;;;8.93;7.88;;;;;;;24.57;64.38;64549.63;5134708;28;20211;-80
2023/07/23 05:08:35;;;;;;;11.75;9.15;;;;;;;24.49;71.27;64536.06;5125959;28;20202;-80
2023/07/23 05:11:04;;;;;;;9.50;7.28;;;;;;;24.48;68.29;64540.75;5128099;28;20448;-79
2023/07/23 05:13:32;;;;;;;8.90;7.90;;;;;;;24.69;66.67;64562.22;5130058;28;20365;-79
2023/07/23 05:15:59;;;;;;;9.20;7.65;;;;;;;24.70;63.11;64563.78;5127694;28;20263;-79
2023/07/23 05:18:27;;;;;;;6.93;6.22;;;;;;;24.86;60.21;64577.44;5125936;28;20194;-79
2023/07/23 05:20:54;;;;;;;6.38;5.88;;;;;;;24.98;57.69;64590.00;5129232;28;20622;-79
2023/07/23 05:23:23;;;;;;;5.13;4.07;;;;;;;25.02;53.03;64592.09;5129587;28;20359;-78
2023/07/23 05:25:50;;;;;;;5.53;4.97;;;;;;;25.05;55.38;64592.13;5128638;28;20222;-77
2023/07/23 05:28:17;;;;;;;4.60;4.18;;;;;;;25.13;51.25;64610.91;5127822;28;20195;-80
2023/07/23 05:30:44;;;;;;;5.88;5.38;;;;;;;25.31;55.95;64626.66;5128346;28;20214;-79
2023/07/23 05:33:11;;;;;;;5.50;5.10;;;;;;;25.35;54.50;64623.53;5129934;28;20195;-78
2023/07/23 05:35:40;;;;;;;7.30;4.10;;;;;;;25.16;53.60;64614.06;5125999;28;20228;-79
2023/07/23 05:38:07;;;;;;;6.45;3.95;;;;;;;25.15;52.23;64607.78;5132011;28;20200;-78
2023/07/23 05:40:36;;;;;;;4.28;3.60;;;;;;;25.12;51.41;64602.06;5127801;28;20195;-78
2023/07/23 05:43:09;;;;;;;5.00;4.60;;;;;;;25.11;51.66;64603.59;5127659;28;20201;-79
2023/07/23 05:45:37;;;;;;;4.35;3.92;;;;;;;25.13;50.55;64606.22;5125405;28;20220;-80
2023/07/23 05:48:04;;;;;;;4.57;4.25;;;;;;;25.23;52.43;64618.28;5127189;28;20202;-79
2023/07/23 05:50:31;;;;;;;7.15;4.10;;;;;;;25.24;51.57;64619.31;5127831;28;20500;-79
2023/07/23 05:52:58;;;;;;;4.95;3.90;;;;;;;25.28;49.92;64621.44;5129461;28;20296;-79
2023/07/23 05:55:25;;;;;;;4.82;4.07;;;;;;;25.20;51.13;64610.44;5110150;28;20199;-79
2023/07/23 05:57:54;;;;;;;8.52;6.22;;;;;;;25.04;57.07;64599.41;5107323;28;20251;-78
2023/07/23 06:00:21;;;;;;;6.15;5.55;;;;;;;25.19;58.90;64611.47;5108292;28;20195;-78
2023/07/23 06:02:48;;;;;;;8.13;7.32;;;;;;;25.22;63.37;64614.59;5114697;28;20424;-79
2023/07/23 06:05:15;;;;;;;7.18;6.55;;;;;;;25.11;61.07;64601.53;5127273;28;20230;-78
2023/07/23 06:07:42;;;;;;;7.60;6.78;;;;;;;25.17;64.84;64606.75;5132332;28;20210;-79
2023/07/23 06:10:10;;;;;;;9.10;8.15;;;;;;;25.24;69.15;64619.31;5128924;28;20194;-79
2023/07/23 06:12:37;;;;;;;8.55;7.80;;;;;;;25.24;70.33;64619.84;5124231;28;20211;-79
2023/07/23 06:15:06;;;;;;;8.30;7.22;;;;;;;25.38;66.85;64631.91;5128025;28;20383;-80
2023/07/23 06:17:33;;;;;;;14.65;8.38;;;;;;;25.40;66.62;64634.03;5126999;28;20573;-79
2023/07/23 06:20:00;;;;;;;8.55;6.63;;;;;;;25.24;64.71;64622.44;5115170;28;20206;-79
2023/07/23 06:22:27;;;;;;;7.80;7.18;;;;;;;25.28;65.98;64621.44;5125571;28;20210;-79
2023/07/23 06:24:54;;;;;;;8.85;7.57;;;;;;;25.37;64.51;64633.47;5126652;28;20569;-78
2023/07/23 06:27:22;;;;;;;9.25;8.35;;;;;;;25.49;69.13;64643.44;5126554;28;20387;-79
2023/07/23 06:29:49;;;;;;;11.18;7.22;;;;;;;25.57;65.97;64653.91;5126021;28;20230;-78
2023/07/23 06:32:17;;;;;;;9.10;7.95;;;;;;;25.40;69.25;64633.50;5126294;28;20211;-79
2023/07/23 06:34:44;;;;;;;10.30;8.10;;;;;;;25.31;70.65;64624.03;5128025;28;20195;-79
2023/07/23 06:37:11;;;;;;;8.07;7.07;;;;;;;25.40;67.65;64634.03;5131094;28;20217;-79
2023/07/23 06:39:38;;;;;;;10.20;7.63;;;;;;;25.52;68.51;64649.19;5125919;28;20214;-82
2023/07/23 06:42:06;;;;;;;7.10;6.07;;;;;;;25.58;61.11;64652.34;5116850;28;20215;-78
2023/07/23 06:44:33;;;;;;;9.23;6.85;;;;;;;25.65;62.44;64657.06;5110784;28;20227;-80
2023/07/23 06:47:01;;;;;;;7.97;6.47;;;;;;;25.74;63.54;64669.66;5111901;28;20219;-78
2023/07/23 06:49:31;;;;;;;6.97;6.28;;;;;;;25.85;64.51;64681.16;5132427;28;20203;-80
2023/07/23 06:51:58;;;;;;;11.88;7.50;;;;;;;25.68;67.13;64660.75;5135365;28;20226;-79
2023/07/23 06:54:25;;;;;;;9.88;8.10;;;;;;;25.61;69.82;64656.00;5132530;28;20239;-78
2023/07/23 06:56:53;;;;;;;10.02;7.88;;;;;;;25.72;68.43;64670.16;5129650;28;20219;-76
2023/07/23 06:59:20;;;;;;;11.90;7.72;;;;;;;25.57;62.83;64651.31;5130393;28;20392;-78
2023/07/23 07:01:47;;;;;;;10.15;6.68;;;;;;;25.58;64.79;64652.88;5131202;28;20225;-78
2023/07/23 07:04:14;;;;;;;10.55;8.30;;;;;;;25.56;65.14;64650.25;5133158;28;20250;-79
2023/07/23 07:06:44;;;;;;;8.20;7.18;;;;;;;25.74;64.86;64672.25;5118297;28;20223;-80
2023/07/23 07:09:11;;;;;;;6.75;5.65;;;;;;;25.85;58.39;64678.56;5112282;28;20196;-80
2023/07/23 07:11:38;;;;;;;9.35;6.05;;;;;;;25.93;59.58;64689.56;5110349;28;20211;-78
2023/07/23 07:14:06;;;;;;;6.68;6.07;;;;;;;25.92;57.10;64688.50;5110961;28;20487;-78
2023/07/23 07:16:34;;;;;;;8.60;6.22;;;;;;;25.99;60.72;64692.69;5129220;28;20294;-78
2023/07/23 07:19:02;;;;;;;7.47;6.05;;;;;;;26.03;57.87;64702.66;5130043;28;20198;-79
2023/07/23 07:21:30;;;;;;;6.35;5.85;;;;;;;26.07;56.65;64706.88;5132391;28;20218;-78
2023/07/23 07:23:58;;;;;;;6.22;5.60;;;;;;;26.08;56.82;64707.38;5132416;28;20244;-78
2023/07/23 07:26:25;;;;;;;7.15;5.80;;;;;;;26.06;56.08;64700.06;5112462;28;20237;-78
2023/07/23 07:28:53;;;;;;;7.93;5.80;;;;;;;26.13;56.39;64707.41;5109861;28;20488;-78
2023/07/23 07:31:20;;;;;;;6.03;5.15;;;;;;;26.42;53.69;64737.78;5116535;28;20240;-81
2023/07/23 07:33:47;;;;;;;11.25;6.80;;;;;;;26.44;54.33;64745.13;5129443;28;20206;-78
2023/07/23 07:36:15;;;;;;;11.27;5.80;;;;;;;26.46;54.46;64744.59;5129814;28;20214;-79
2023/07/23 07:38:42;;;;;;;17.65;5.47;;;;;;;26.69;50.05;64768.22;5131786;28;20207;-79
2023/07/23 07:41:12;;;;;;;6.43;5.07;;;;;;;26.85;47.87;64782.91;5132149;28;20554;-80
2023/07/23 07:43:39;;;;;;;5.55;5.05;;;;;;;26.91;48.04;64786.06;5128938;28;20284;-77
2023/07/23 07:46:07;;;;;;;7.80;5.43;;;;;;;27.01;50.42;64801.78;5129712;28;20211;-78
2023/07/23 07:48:37;;;;;;;7.65;5.00;;;;;;;27.27;49.48;64832.22;5131556;28;20195;-80
2023/07/23 07:51:07;;;;;;;6.22;4.85;;;;;;;27.20;49.39;64819.09;5129024;28;20219;-78
2023/07/23 07:53:35;;;;;;;5.55;5.05;;;;;;;27.19;47.77;64826.44;5128598;28;20191;-78
2023/07/23 07:56:03;;;;;;;8.15;5.38;;;;;;;27.16;49.04;64818.03;5132362;28;20237;-78
2023/07/23 07:58:33;;;;;;;6.93;4.93;;;;;;;26.96;47.48;64791.84;5130963;28;20210;-78
2023/07/23 08:01:02;;;;;;;4.50;4.10;;;;;;;26.95;47.13;64796.03;5127468;28;20240;-78
2023/07/23 08:03:30;;;;;;;5.68;4.30;;;;;;;26.85;47.31;64785.53;5129676;28;20199;-79
2023/07/23 08:05:58;;;;;;;5.35;4.97;;;;;;;26.97;47.29;64800.72;5130670;28;20240;-77
2023/07/23 08:08:27;;;;;;;6.20;4.47;;;;;;;26.93;47.19;64790.78;5130830;28;20194;-79
2023/07/23 08:10:55;;;;;;;5.40;4.65;;;;;;;26.80;47.05;64774.53;5110525;28;20436;-79
2023/07/23 08:13:22;;;;;;;7.05;4.97;;;;;;;26.99;48.49;64802.81;5114848;28;20241;-78
2023/07/23 08:15:51;;;;;;;5.53;4.93;;;;;;;27.13;47.19;64812.28;5109488;28;20440;-78
2023/07/23 08:18:18;;;;;;;5.63;5.03;;;;;;;27.24;46.65;64826.44;5115772;28;20210;-80
2023/07/23 08:20:47;;;;;;;5.93;5.10;;;;;;;27.34;47.54;64838.53;5129354;28;20612;-78
2023/07/23 08:23:15;;;;;;;5.82;5.32;;;;;;;27.15;46.33;64814.38;5130825;28;20187;-78
2023/07/23 08:25:48;;;;;;;7.03;5.05;;;;;;;27.18;47.28;64820.16;5130078;28;20230;-79
2023/07/23 08:28:22;;;;;;;5.65;4.95;;;;;;;27.25;47.67;64826.97;5132379;28;20195;-79
2023/07/23 08:30:51;;;;;;;6.22;5.72;;;;;;;27.07;47.03;64808.63;5127811;28;20252;-79
2023/07/23 08:33:19;;;;;;;5.90;5.30;;;;;;;27.06;47.24;64804.44;5127849;28;20622;-77
2023/07/23 08:35:47;;;;;;;6.18;5.57;;;;;;;27.12;47.37;64819.09;5126692;28;20195;-78
2023/07/23 08:38:16;;;;;;;7.43;5.40;;;;;;;27.26;48.04;64825.41;5128581;28;20202;-78
2023/07/23 08:40:45;;;;;;;8.98;5.70;;;;;;;27.50;46.47;64850.59;5128912;28;20198;-78
2023/07/23 08:43:43;;;;;;;6.85;4.78;;;;;;;27.43;45.92;64845.88;5132023;28;20194;-78
2023/07/23 08:46:25;;;;;;;6.47;4.68;;;;;;;27.30;46.18;64827.53;5126033;28;20230;-78
2023/07/23 08:49:04;;;;;;;7.53;5.15;;;;;;;27.42;45.20;64850.06;5127412;28;20262;-78
2023/07/23 08:51:41;;;;;;;6.50;4.82;;;;;;;27.54;46.12;64851.66;5126996;28;20214;-78
2023/07/23 08:54:09;;;;;;;5.47;4.97;;;;;;;27.81;45.89;64888.38;5125309;28;20247;-78
2023/07/23 08:56:37;;;;;;;6.50;4.57;;;;;;;27.93;45.05;64898.38;5127711;28;20397;-76
2023/07/23 08:59:05;;;;;;;5.20;4.80;;;;;;;28.09;43.87;64915.19;5133280;28;20197;-81
2023/07/23 09:01:36;;;;;;;5.50;5.00;;;;;;;28.12;44.81;64918.31;5128508;28;20243;-78
2023/07/23 09:04:05;;;;;;;6.78;5.13;;;;;;;28.26;43.74;64933.03;5126325;28;20198;-77
2023/07/23 09:06:32;;;;;;;5.32;4.68;;;;;;;28.08;45.19;64921.97;5126722;28;20218;-79
2023/07/23 09:09:04;;;;;;;6.60;5.25;;;;;;;28.00;43.88;64905.19;5127817;28;20240;-77
2023/07/23 09:11:32;;;;;;;8.77;5.47;;;;;;;28.01;44.76;64901.53;5128489;28;20287;-77
2023/07/23 09:14:02;;;;;;;5.97;5.38;;;;;;;27.94;44.69;64898.91;5125748;28;20206;-79
2023/07/23 09:16:29;;;;;;;6.53;5.45;;;;;;;27.99;44.46;64901.53;5130862;28;20223;-80
2023/07/23 09:18:57;;;;;;;6.15;5.13;;;;;;;27.98;44.11;64901.00;5128716;28;20220;-77
2023/07/23 09:21:29;;;;;;;6.53;5.05;;;;;;;27.93;44.85;64897.84;5127061;28;20214;-77
2023/07/23 09:23:57;;;;;;;5.93;5.43;;;;;;;27.89;44.93;64896.78;5127221;28;20254;-80
2023/07/23 09:26:26;;;;;;;6.15;5.32;;;;;;;27.87;44.89;64891.53;5128371;28;20401;-77
2023/07/23 09:28:54;;;;;;;5.18;4.68;;;;;;;27.91;45.19;64896.28;5125878;28;20411;-78
2023/07/23 09:31:26;;;;;;;7.20;5.13;;;;;;;27.88;44.26;64895.72;5130731;28;20218;-77
2023/07/23 09:33:55;;;;;;;5.97;5.18;;;;;;;27.93;44.40;64895.75;5130641;28;20194;-79
2023/07/23 09:36:25;;;;;;;6.75;6.03;;;;;;;28.02;45.52;64907.31;5123572;28;20215;-78
2023/07/23 09:38:56;;;;;;;9.13;5.93;;;;;;;28.26;43.81;64937.72;5126469;28;20483;-78
2023/07/23 09:41:23;;;;;;;6.47;5.43;;;;;;;28.25;43.79;64936.69;5127410;28;20210;-79
2023/07/23 09:43:51;;;;;;;5.78;5.10;;;;;;;28.25;44.18;64931.97;5126659;28;20199;-77
2023/07/23 09:46:18;;;;;;;5.70;5.20;;;;;;;28.50;43.16;64957.16;5123946;28;20226;-77
2023/07/23 09:48:49;;;;;;;6.22;5.18;;;;;;;28.67;42.29;64972.41;5132231;28;20186;-77
2023/07/23 09:51:16;;;;;;;6.40;5.80;;;;;;;28.71;42.81;64982.41;5129476;28;20218;-78
2023/07/23 09:53:45;;;;;;;6.18;4.47;;;;;;;28.64;41.70;64969.25;5127999;28;20199;-78
2023/07/23 09:56:13;;;;;;;6.70;5.00;;;;;;;28.38;41.67;64950.34;5124391;28;20214;-78
2023/07/23 09:58:40;;;;;;;10.35;6.57;;;;;;;28.47;42.08;64959.25;5129289;28;20418;-79
2023/07/23 10:01:07;;;;;;;9.02;6.47;;;;;;;28.73;41.24;64981.88;5127520;28;20215;-81
2023/07/23 10:03:35;;;;;;;7.45;5.90;;;;;;;28.90;40.67;64996.56;5125232;28;20194;-78
2023/07/23 10:06:03;;;;;;;7.28;6.63;;;;;;;28.88;40.32;64997.63;5130528;28;20236;-79
2023/07/23 10:08:34;;;;;;;8.30;7.10;;;;;;;28.73;39.98;64983.97;5126666;28;20191;-78
2023/07/23 10:11:03;;;;;;;6.10;5.50;;;;;;;28.64;40.94;64971.88;5125888;28;20225;-77
2023/07/23 10:13:30;;;;;;;9.98;6.40;;;;;;;28.61;40.63;64969.28;5126064;28;20199;-80
2023/07/23 10:15:58;;;;;;;8.00;5.10;;;;;;;28.74;41.14;64982.38;5126273;28;20218;-77
2023/07/23 10:18:28;;;;;;;6.10;5.57;;;;;;;28.92;41.30;65003.94;5134623;28;20214;-76
2023/07/23 10:20:55;;;;;;;7.97;6.90;;;;;;;28.98;38.24;65004.97;5133624;28;20594;-79
2023/07/23 10:23:23;;;;;;;8.82;6.72;;;;;;;29.10;37.64;65022.84;5130097;28;20221;-80
2023/07/23 10:26:11;;;;;;;7.72;6.93;;;;;;;29.26;38.23;65034.94;5131056;28;20230;-79
2023/07/23 10:28:40;;;;;;;12.43;6.68;;;;;;;29.24;37.56;65035.47;5132406;28;20282;-79
2023/07/23 10:31:23;;;;;;;12.05;7.20;;;;;;;29.19;37.80;65029.69;5128987;28;20254;-78
2023/07/23 10:33:51;;;;;;;7.35;6.25;;;;;;;29.04;39.01;65014.44;5135162;28;20203;-77
2023/07/23 10:36:21;;;;;;;6.72;5.97;;;;;;;29.19;40.34;65029.69;5132142;28;20220;-78
2023/07/23 10:39:06;;;;;;;7.55;6.85;;;;;;;29.45;38.32;65059.63;5130943;28;20199;-80
2023/07/23 10:41:50;;;;;;;7.25;6.15;;;;;;;29.58;37.26;65070.16;5128597;28;20225;-78
2023/07/23 10:44:28;;;;;;;9.77;7.13;;;;;;;29.61;37.02;65076.44;5131963;28;20270;-80
2023/07/23 10:46:57;;;;;;;9.70;6.88;;;;;;;29.43;37.29;65055.44;5130842;28;20226;-78
2023/07/23 10:49:25;;;;;;;14.82;7.03;;;;;;;29.61;38.09;65071.19;5131629;28;20265;-78
2023/07/23 10:51:53;;;;;;;11.80;7.60;;;;;;;29.50;36.99;65065.41;5131381;28;20230;-79
2023/07/23 10:54:22;;;;;;;9.95;7.70;;;;;;;29.65;37.63;65078.00;5131354;28;20210;-78
2023/07/23 10:56:50;;;;;;;10.27;7.05;;;;;;;29.56;38.08;65068.03;5129619;28;20612;-78
2023/07/23 10:59:21;;;;;;;10.80;7.45;;;;;;;29.70;37.07;65080.66;5129207;28;20254;-79
2023/07/23 11:01:52;;;;;;;8.68;6.78;;;;;;;29.37;36.29;65045.97;5131994;28;20215;-78
2023/07/23 11:04:26;;;;;;;13.43;7.90;;;;;;;29.33;36.71;65039.69;5135313;28;20194;-77
2023/07/23 11:06:57;;;;;;;8.73;7.03;;;;;;;29.54;36.52;65066.47;5129793;28;20234;-77
2023/07/23 11:09:30;;;;;;;13.27;8.02;;;;;;;29.23;36.59;65031.25;5129137;28;20197;-77
2023/07/23 11:11:58;;;;;;;10.27;8.38;;;;;;;29.30;36.81;65041.25;5130295;28;20215;-78
2023/07/23 11:14:27;;;;;;;17.02;7.80;;;;;;;29.49;36.88;65064.34;5130345;28;20197;-80
2023/07/23 11:16:57;;;;;;;9.45;6.47;;;;;;;29.50;36.45;65060.16;5127534;28;20235;-77
2023/07/23 11:19:25;;;;;;;11.30;7.28;;;;;;;29.73;35.13;65088.56;5133060;28;20232;-81
2023/07/23 11:21:56;;;;;;;10.00;7.07;;;;;;;29.79;34.99;65094.84;5131929;28;20215;-77
2023/07/23 11:24:23;;;;;;;11.77;8.27;;;;;;;29.37;35.79;65049.13;5128737;28;20190;-76
2023/07/23 11:26:51;;;;;;;10.57;8.07;;;;;;;29.52;36.81;65069.63;5127928;28;20269;-76
2023/07/23 11:29:18;;;;;;;11.00;8.73;;;;;;;29.76;36.19;65091.69;5130546;28;20198;-80
2023/07/23 11:31:46;;;;;;;15.93;8.07;;;;;;;29.57;34.68;65067.00;5130131;28;20248;-77
2023/07/23 11:34:14;;;;;;;11.77;8.73;;;;;;;29.48;33.53;65063.31;5132398;28;20194;-76